Time;durP1;ratioP1;P1;durP2;ratioP2;P2;SDS_P1;SDS_P2;PMS_P1;PMS_P2;Temp;Humidity;BMP_temperature;BMP_pressure;BME280_temperature;BME280_humidity;BME280_pressure;Samples;Min_cycle;Max_cycle;Signal;HPM_P1;HPM_P2
2022/01/24 00:00:34;;;;;;;15.95;12.73;;;5.70;99.90;;;;;;5009637;28;20572;-74
2022/01/24 00:03:00;;;;;;;16.25;11.35;;;5.80;99.90;;;;;;4978579;28;20045;-74
2022/01/24 00:05:25;;;;;;;21.85;14.10;;;5.80;99.90;;;;;;4992160;28;20038;-74
2022/01/24 00:07:51;;;;;;;18.23;14.25;;;5.80;99.90;;;;;;4971920;28;20030;-74
2022/01/24 00:10:21;;;;;;;21.63;14.00;;;5.70;99.90;;;;;;4974795;28;20072;-74
2022/01/24 00:18:04;;;;;;;16.33;12.10;;;5.70;99.90;;;;;;4971830;28;20294;-74
2022/01/24 00:28:28;;;;;;;14.77;9.82;;;5.70;99.90;;;;;;4978046;28;20501;-74
2022/01/24 00:30:54;;;;;;;16.42;11.10;;;5.70;99.90;;;;;;4981410;28;20049;-74
2022/01/24 00:33:20;;;;;;;17.77;11.27;;;5.70;99.90;;;;;;5004043;28;20077;-73
2022/01/24 00:35:47;;;;;;;16.13;10.18;;;5.60;99.90;;;;;;4982415;28;20077;-74
2022/01/24 00:38:14;;;;;;;14.85;9.82;;;5.60;99.90;;;;;;4981943;28;20037;-73
2022/01/24 00:40:43;;;;;;;16.73;11.18;;;5.70;99.90;;;;;;4958099;28;20045;-73
2022/01/24 00:43:20;;;;;;;15.15;9.73;;;5.70;99.90;;;;;;4998208;28;20065;-73
2022/01/24 00:46:00;;;;;;;13.98;8.95;;;5.70;99.90;;;;;;4982107;28;20052;-73
2022/01/24 00:56:14;;;;;;;12.93;8.40;;;5.60;99.90;;;;;;4973610;28;20057;-73
2022/01/24 00:58:40;;;;;;;13.70;8.50;;;5.60;99.90;;;;;;4980980;28;20041;-74
2022/01/24 01:01:06;;;;;;;13.05;8.82;;;5.60;99.90;;;;;;4968534;28;20120;-74
2022/01/24 01:03:32;;;;;;;14.43;9.40;;;5.60;99.90;;;;;;4992508;28;20065;-74
2022/01/24 01:19:22;;;;;;;11.52;7.47;;;5.60;99.90;;;;;;4994519;28;20042;-74
2022/01/24 01:21:48;;;;;;;10.15;7.72;;;5.60;99.90;;;;;;5011152;28;20064;-73
2022/01/24 01:24:14;;;;;;;12.40;7.68;;;5.60;99.90;;;;;;5002284;28;20045;-74
2022/01/24 01:26:52;;;;;;;9.98;7.00;;;5.60;99.90;;;;;;5013408;28;20041;-74
2022/01/24 01:29:23;;;;;;;9.70;7.13;;;5.60;99.90;;;;;;5011009;28;20045;-74
2022/01/24 01:55:47;;;;;;;8.88;6.05;;;5.50;99.90;;;;;;4993601;28;20045;-74
2022/01/24 01:58:16;;;;;;;7.35;5.82;;;5.50;99.90;;;;;;4995065;28;20541;-74
2022/01/24 02:00:45;;;;;;;9.30;6.05;;;5.50;99.90;;;;;;5017026;28;20274;-82
2022/01/24 02:03:13;;;;;;;8.23;5.30;;;5.40;99.90;;;;;;5009791;28;20462;-83
2022/01/24 02:05:39;;;;;;;7.93;5.70;;;5.40;99.90;;;;;;5014520;28;20038;-82
2022/01/24 02:08:05;;;;;;;8.68;5.88;;;5.40;99.90;;;;;;4982101;28;20481;-82
2022/01/24 02:10:34;;;;;;;7.75;5.25;;;5.50;99.90;;;;;;5013776;28;20335;-82
2022/01/24 02:13:00;;;;;;;7.63;5.90;;;5.40;99.90;;;;;;5016015;28;20498;-82
2022/01/24 02:15:38;;;;;;;7.85;5.25;;;5.40;99.90;;;;;;5015851;28;20053;-82
2022/01/24 02:18:44;;;;;;;7.43;5.90;;;5.40;99.90;;;;;;5011926;28;20057;-82
2022/01/24 02:24:00;;;;;;;;;;;5.40;99.90;;;;;;4934248;29;20092;-82
2022/01/24 02:26:26;;;;;;;8.95;5.85;;;5.40;99.90;;;;;;4994391;28;19928;-82
2022/01/24 02:29:12;;;;;;;8.25;5.93;;;5.40;99.90;;;;;;4998107;28;20081;-82
2022/01/24 02:31:47;;;;;;;10.50;5.70;;;5.40;99.90;;;;;;5009255;28;20056;-83
2022/01/24 02:34:50;;;;;;;7.72;6.00;;;5.40;99.90;;;;;;5012653;28;20124;-83
2022/01/24 02:37:19;;;;;;;8.00;5.80;;;5.40;99.90;;;;;;4955115;28;20109;-82
2022/01/24 02:39:59;;;;;;;8.43;5.65;;;5.40;99.90;;;;;;5003159;28;20440;-82
2022/01/24 02:53:21;;;;;;;8.52;5.55;;;5.40;99.90;;;;;;5014703;28;20049;-82
2022/01/24 02:55:47;;;;;;;7.45;5.85;;;5.30;99.90;;;;;;5014860;28;20033;-83
2022/01/24 02:58:15;;;;;;;7.03;5.35;;;5.30;99.90;;;;;;5014840;28;20337;-82
2022/01/24 03:00:41;;;;;;;8.68;5.97;;;5.30;99.90;;;;;;5029933;28;20080;-82
2022/01/24 03:03:07;;;;;;;11.10;6.90;;;5.30;99.90;;;;;;4995790;28;20064;-82
2022/01/24 03:05:33;;;;;;;9.57;6.07;;;5.30;99.90;;;;;;5010202;28;20053;-82
2022/01/24 03:07:59;;;;;;;7.82;5.22;;;5.30;99.90;;;;;;5009838;28;20410;-83
2022/01/24 03:10:36;;;;;;;9.20;6.05;;;5.30;99.90;;;;;;5005257;28;20041;-83
2022/01/24 03:15:41;;;;;;;9.40;6.15;;;5.30;99.90;;;;;;4998201;28;20050;-82
2022/01/24 03:18:07;;;;;;;9.38;5.85;;;5.30;99.90;;;;;;5012196;28;20133;-83
2022/01/24 03:20:34;;;;;;;7.78;5.32;;;5.30;99.90;;;;;;4992609;28;20041;-83
2022/01/24 03:23:00;;;;;;;7.85;5.43;;;5.30;99.90;;;;;;5009920;28;20077;-83
2022/01/24 03:25:27;;;;;;;8.60;5.80;;;5.30;99.90;;;;;;5011557;28;20034;-83
2022/01/24 03:27:53;;;;;;;7.38;5.13;;;5.30;99.90;;;;;;5008808;28;20563;-82
2022/01/24 03:30:19;;;;;;;9.57;6.15;;;5.30;99.90;;;;;;5011063;28;20041;-83
2022/01/24 03:32:44;;;;;;;9.35;7.22;;;5.30;99.90;;;;;;5012112;28;20077;-82
2022/01/24 03:35:11;;;;;;;10.60;7.07;;;5.30;99.90;;;;;;4992715;28;20069;-83
2022/01/24 03:37:38;;;;;;;11.18;6.32;;;5.30;99.90;;;;;;5010889;28;20432;-83
2022/01/24 03:40:05;;;;;;;12.98;7.35;;;5.30;99.90;;;;;;4996152;28;20045;-83
2022/01/24 03:42:31;;;;;;;8.15;6.10;;;5.30;99.90;;;;;;5028688;28;20386;-83
2022/01/24 03:45:00;;;;;;;9.43;6.07;;;5.30;99.90;;;;;;5013527;28;20072;-83
2022/01/24 03:50:05;;;;;;;8.98;6.50;;;5.30;99.90;;;;;;4997797;28;20570;-83
2022/01/24 03:52:31;;;;;;;10.40;6.57;;;5.30;99.90;;;;;;5026025;28;20512;-83
2022/01/24 03:54:58;;;;;;;9.43;6.15;;;5.30;99.90;;;;;;4992133;28;20041;-83
2022/01/24 03:57:25;;;;;;;9.98;6.70;;;5.30;99.90;;;;;;5022860;28;20541;-83
2022/01/24 03:59:51;;;;;;;10.20;6.85;;;5.30;99.90;;;;;;5007302;28;20490;-83
2022/01/24 04:02:21;;;;;;;9.85;7.00;;;5.30;99.90;;;;;;5005976;28;20044;-82
2022/01/24 04:04:46;;;;;;;9.20;6.15;;;5.30;99.90;;;;;;5009952;28;20094;-83
2022/01/24 04:07:12;;;;;;;10.68;8.02;;;5.30;99.90;;;;;;5011887;28;20041;-82
2022/01/24 04:09:40;;;;;;;11.48;8.23;;;5.20;99.90;;;;;;4999411;28;20055;-82
2022/01/24 04:12:08;;;;;;;14.65;7.32;;;5.20;99.90;;;;;;5008066;28;20331;-83
2022/01/24 04:22:34;;;;;;;9.00;6.70;;;5.20;99.90;;;;;;5023325;28;20052;-83
2022/01/24 04:25:03;;;;;;;10.02;7.00;;;5.20;99.90;;;;;;5032194;28;20432;-82
2022/01/24 04:27:30;;;;;;;11.98;7.78;;;5.20;99.90;;;;;;5009108;28;20049;-83
2022/01/24 04:29:56;;;;;;;10.85;7.95;;;5.20;99.90;;;;;;5011551;28;20060;-82
2022/01/24 04:32:23;;;;;;;9.63;7.30;;;5.20;99.90;;;;;;5011312;28;20061;-82
2022/01/24 04:34:49;;;;;;;12.05;7.47;;;5.20;99.90;;;;;;5008421;28;20435;-83
2022/01/24 04:37:16;;;;;;;11.48;7.82;;;5.20;99.90;;;;;;5010211;28;20501;-83
2022/01/24 04:39:43;;;;;;;13.02;7.97;;;5.20;99.90;;;;;;5010609;28;20072;-83
2022/01/24 04:42:15;;;;;;;11.60;8.10;;;5.20;99.90;;;;;;5014254;28;20029;-83
2022/01/24 04:53:27;;;;;;;10.38;7.43;;;5.20;99.90;;;;;;4998306;28;20184;-83
2022/01/24 04:55:12;;;;;;;13.63;7.45;;;5.10;99.90;;;;;;4985103;28;20046;-82
2022/01/24 04:57:38;;;;;;;10.15;7.53;;;5.20;99.90;;;;;;5010150;28;20064;-83
2022/01/24 05:00:08;;;;;;;12.32;8.50;;;5.10;99.90;;;;;;5012038;28;20099;-83
2022/01/24 05:02:34;;;;;;;10.55;7.20;;;5.10;99.90;;;;;;5011379;28;20084;-82
2022/01/24 05:05:00;;;;;;;13.57;8.40;;;5.20;99.90;;;;;;5009844;28;20069;-83
2022/01/24 05:07:26;;;;;;;14.23;8.52;;;5.20;99.90;;;;;;4993598;28;20039;-82
2022/01/24 05:10:03;;;;;;;10.68;7.63;;;5.20;99.90;;;;;;5015138;28;20460;-83
2022/01/24 05:21:21;;;;;;;11.77;8.20;;;5.20;99.90;;;;;;5009346;28;20367;-83
2022/01/24 05:25:57;;;;;;;13.90;8.05;;;5.20;99.90;;;;;;5011295;28;20187;-74
2022/01/24 05:28:23;;;;;;;12.27;7.93;;;5.20;99.90;;;;;;5009476;28;20054;-73
2022/01/24 05:30:49;;;;;;;12.65;8.40;;;5.10;99.90;;;;;;5008779;28;20390;-74
2022/01/24 05:33:15;;;;;;;11.73;8.20;;;5.10;99.90;;;;;;4991871;28;20037;-74
2022/01/24 05:35:41;;;;;;;13.52;9.63;;;5.10;99.90;;;;;;5025762;28;20075;-74
2022/01/24 05:38:07;;;;;;;12.13;8.23;;;5.10;99.90;;;;;;4993035;28;20296;-74
2022/01/24 05:40:33;;;;;;;13.90;9.18;;;5.10;99.90;;;;;;4975041;28;20050;-74
2022/01/24 05:42:59;;;;;;;12.77;9.23;;;5.10;99.90;;;;;;5010141;28;20045;-83
2022/01/24 05:45:25;;;;;;;13.70;9.23;;;5.10;99.90;;;;;;5029559;28;20486;-82
2022/01/24 05:47:50;;;;;;;12.88;9.18;;;5.10;99.90;;;;;;5016917;28;20065;-83
2022/01/24 05:50:16;;;;;;;13.88;8.85;;;5.10;99.90;;;;;;4992946;28;20037;-83
2022/01/24 05:52:42;;;;;;;13.80;9.27;;;5.10;99.90;;;;;;5010855;28;20080;-85
2022/01/24 05:55:08;;;;;;;16.05;9.50;;;5.10;99.90;;;;;;4983231;28;20092;-74
2022/01/24 05:57:36;;;;;;;13.02;8.38;;;5.10;99.90;;;;;;5012393;28;20037;-74
2022/01/24 06:00:04;;;;;;;12.00;9.23;;;5.10;99.90;;;;;;4996753;28;20025;-75
2022/01/24 06:02:30;;;;;;;15.73;9.45;;;5.10;99.90;;;;;;5029079;28;20115;-85
2022/01/24 06:04:56;;;;;;;12.20;8.57;;;5.10;99.90;;;;;;5013885;28;20447;-85
2022/01/24 06:07:21;;;;;;;12.45;8.88;;;5.10;99.90;;;;;;5019412;28;20030;-84
2022/01/24 06:09:47;;;;;;;14.23;8.93;;;5.10;99.90;;;;;;4997247;28;20049;-84
2022/01/24 06:12:13;;;;;;;14.55;9.32;;;5.10;99.90;;;;;;5021797;28;20076;-85
2022/01/24 06:14:39;;;;;;;11.95;9.50;;;5.10;99.90;;;;;;5025804;28;20099;-83
2022/01/24 06:17:05;;;;;;;14.23;9.88;;;5.10;99.90;;;;;;5000061;28;20046;-85
2022/01/24 06:19:31;;;;;;;16.65;10.40;;;5.10;99.90;;;;;;4996167;28;20073;-84
2022/01/24 06:21:56;;;;;;;14.70;9.27;;;5.10;99.90;;;;;;5020068;28;20044;-84
2022/01/24 06:24:22;;;;;;;14.38;10.02;;;5.10;99.90;;;;;;4995239;28;20052;-83
2022/01/24 06:26:48;;;;;;;15.35;9.88;;;5.10;99.90;;;;;;5011706;28;20038;-83
2022/01/24 06:29:14;;;;;;;14.90;9.50;;;5.10;99.90;;;;;;4997087;28;20361;-84
2022/01/24 06:31:39;;;;;;;14.75;9.75;;;5.10;99.90;;;;;;5009827;28;20049;-84
2022/01/24 06:34:06;;;;;;;14.68;9.68;;;5.10;99.90;;;;;;5010955;28;20095;-85
2022/01/24 06:36:32;;;;;;;13.57;8.95;;;5.10;99.90;;;;;;5035234;28;20037;-83
2022/01/24 06:39:00;;;;;;;14.45;9.65;;;5.10;99.90;;;;;;5013374;28;20052;-84
2022/01/24 06:41:30;;;;;;;22.23;10.55;;;5.20;99.90;;;;;;5013702;28;20183;-74
2022/01/24 06:43:56;;;;;;;15.23;10.68;;;5.10;99.90;;;;;;4999051;28;20033;-73
2022/01/24 06:46:22;;;;;;;16.45;9.65;;;5.20;99.90;;;;;;5009186;28;20034;-74
2022/01/24 06:48:48;;;;;;;17.02;11.30;;;5.10;99.90;;;;;;5014894;28;20385;-73
2022/01/24 06:51:14;;;;;;;14.35;10.57;;;5.20;99.90;;;;;;4995294;28;20634;-73
2022/01/24 06:53:41;;;;;;;14.05;9.25;;;5.20;99.90;;;;;;4994015;28;20053;-73
2022/01/24 06:56:07;;;;;;;16.00;10.68;;;5.20;99.90;;;;;;4980638;28;20446;-83
2022/01/24 06:58:34;;;;;;;14.52;10.65;;;5.10;99.90;;;;;;4996575;28;20046;-74
2022/01/24 07:01:01;;;;;;;16.85;11.43;;;5.20;99.90;;;;;;5011240;28;20068;-73
2022/01/24 07:03:27;;;;;;;13.07;9.80;;;5.10;99.90;;;;;;5015501;28;20137;-85
2022/01/24 07:05:52;;;;;;;18.70;10.18;;;5.20;99.90;;;;;;5010184;28;20235;-83
2022/01/24 07:08:19;;;;;;;14.45;11.02;;;5.20;99.90;;;;;;5010427;28;20038;-84
2022/01/24 07:10:45;;;;;;;18.33;11.13;;;5.10;99.90;;;;;;5015497;28;20045;-84
2022/01/24 07:13:11;;;;;;;18.25;11.60;;;5.20;99.90;;;;;;5012903;28;20044;-89
2022/01/24 07:15:46;;;;;;;18.63;11.95;;;5.20;99.90;;;;;;5026244;28;20124;-85
2022/01/24 07:18:58;;;;;;;13.00;8.98;;;5.10;99.90;;;;;;5011804;28;20065;-84
2022/01/24 07:21:01;;;;;;;12.48;9.57;;;5.10;99.90;;;;;;4982848;28;20501;-85
2022/01/24 07:23:26;;;;;;;19.70;11.70;;;5.10;99.90;;;;;;4998821;28;20167;-84
2022/01/24 07:25:53;;;;;;;18.33;12.35;;;5.10;99.90;;;;;;5014995;28;20172;-84
2022/01/24 07:28:19;;;;;;;18.42;11.00;;;5.10;99.90;;;;;;5011006;28;20534;-84
2022/01/24 07:30:46;;;;;;;15.98;10.98;;;5.10;99.90;;;;;;5008402;28;20037;-84
2022/01/24 07:33:14;;;;;;;20.23;13.05;;;5.10;99.90;;;;;;4994396;28;20036;-84
2022/01/24 07:35:40;;;;;;;16.27;11.93;;;5.10;99.90;;;;;;5011096;28;20041;-84
2022/01/24 07:38:06;;;;;;;17.60;10.82;;;5.10;99.90;;;;;;5010882;28;20148;-82
2022/01/24 07:40:37;;;;;;;20.15;12.05;;;5.10;99.90;;;;;;5021464;28;20191;-81
2022/01/24 07:43:13;;;;;;;15.57;10.57;;;5.10;99.90;;;;;;4998711;28;20056;-81
2022/01/24 07:45:41;;;;;;;20.85;12.35;;;5.10;99.90;;;;;;5007414;28;20737;-82
2022/01/24 07:48:07;;;;;;;18.15;12.07;;;5.10;99.90;;;;;;5012227;28;20041;-82
2022/01/24 07:50:36;;;;;;;19.48;12.18;;;5.10;99.90;;;;;;5031142;28;20045;-82
2022/01/24 07:53:06;;;;;;;16.33;11.13;;;5.10;99.90;;;;;;5011559;28;20049;-82
2022/01/24 07:55:33;;;;;;;20.98;13.73;;;5.10;99.90;;;;;;4995140;28;20041;-81
2022/01/24 07:57:59;;;;;;;17.30;11.70;;;5.10;99.90;;;;;;5015486;28;20037;-81
2022/01/24 08:00:25;;;;;;;17.95;12.40;;;5.10;99.90;;;;;;5007404;28;20044;-81
2022/01/24 08:02:51;;;;;;;18.23;11.90;;;5.10;99.90;;;;;;4995743;28;20120;-81
2022/01/24 08:05:17;;;;;;;20.77;13.10;;;5.20;99.90;;;;;;5013976;28;20176;-82
2022/01/24 08:07:42;;;;;;;17.48;12.02;;;5.10;99.90;;;;;;5013067;28;20030;-81
2022/01/24 08:10:09;;;;;;;18.30;12.57;;;5.10;99.90;;;;;;5029914;28;20045;-81
2022/01/24 08:12:36;;;;;;;23.77;13.40;;;5.10;99.90;;;;;;5023943;28;20055;-82
2022/01/24 08:15:03;;;;;;;17.10;12.65;;;5.10;99.90;;;;;;5016644;28;20581;-81
2022/01/24 08:17:30;;;;;;;20.77;12.60;;;5.10;99.90;;;;;;5011933;28;20055;-81
2022/01/24 08:19:56;;;;;;;18.10;11.43;;;5.10;99.90;;;;;;5015099;28;20049;-81
2022/01/24 08:22:22;;;;;;;24.15;13.23;;;5.10;99.90;;;;;;5015333;28;20052;-81
2022/01/24 08:24:50;;;;;;;18.33;12.90;;;5.10;99.90;;;;;;5002676;28;20121;-82
2022/01/24 08:27:18;;;;;;;20.00;13.25;;;5.10;99.90;;;;;;5012252;28;20348;-81
2022/01/24 08:29:47;;;;;;;19.90;13.43;;;5.10;99.90;;;;;;5014203;28;20052;-81
2022/01/24 08:32:13;;;;;;;20.70;13.18;;;5.10;99.90;;;;;;5013796;28;20073;-81
2022/01/24 08:34:39;;;;;;;22.27;13.85;;;5.10;99.90;;;;;;5010143;28;20064;-81
2022/01/24 08:37:05;;;;;;;21.83;13.68;;;5.10;99.90;;;;;;5015575;28;20045;-81
2022/01/24 08:39:31;;;;;;;24.52;15.52;;;5.10;99.90;;;;;;5010962;28;20377;-82
2022/01/24 08:42:08;;;;;;;25.50;14.85;;;5.10;99.90;;;;;;5009039;28;20299;-74
2022/01/24 08:47:00;;;;;;;22.13;12.80;;;5.10;99.90;;;;;;4997572;28;20116;-74
2022/01/24 08:49:26;;;;;;;22.38;14.32;;;5.10;99.90;;;;;;5023648;28;20211;-73
2022/01/24 08:51:52;;;;;;;21.30;12.75;;;5.10;99.90;;;;;;4990699;28;20116;-73
2022/01/24 08:54:18;;;;;;;21.05;14.77;;;5.10;99.90;;;;;;5026772;28;20128;-73
2022/01/24 08:56:45;;;;;;;21.45;13.73;;;5.10;99.90;;;;;;5010723;28;20034;-73
2022/01/24 08:59:11;;;;;;;24.63;15.07;;;5.10;99.90;;;;;;4987539;28;20045;-73
2022/01/24 09:01:37;;;;;;;22.95;15.02;;;5.10;99.90;;;;;;5013356;28;20055;-73
2022/01/24 09:04:03;;;;;;;21.80;13.98;;;5.10;99.90;;;;;;4997015;28;20220;-73
2022/01/24 09:06:29;;;;;;;24.05;15.23;;;5.20;99.90;;;;;;5015109;28;20026;-74
2022/01/24 09:08:58;;;;;;;24.40;15.85;;;5.20;99.90;;;;;;4989496;28;20069;-72
2022/01/24 09:11:29;;;;;;;19.52;14.45;;;5.10;99.90;;;;;;4995423;28;20041;-73
2022/01/24 09:13:55;;;;;;;26.85;17.10;;;5.20;99.90;;;;;;4992848;28;20038;-73
2022/01/24 09:16:21;;;;;;;26.67;15.80;;;5.10;99.90;;;;;;5009493;28;20544;-73
2022/01/24 09:18:48;;;;;;;25.42;14.80;;;5.10;99.90;;;;;;4991637;28;20058;-74
2022/01/24 09:21:14;;;;;;;22.55;13.73;;;5.10;99.90;;;;;;4989807;28;20487;-74
2022/01/24 09:23:39;;;;;;;23.73;14.93;;;5.10;99.90;;;;;;5006180;28;20113;-74
2022/01/24 09:26:05;;;;;;;21.50;13.93;;;5.10;99.90;;;;;;4972985;28;20053;-74
2022/01/24 09:28:31;;;;;;;25.10;15.23;;;5.20;99.90;;;;;;5003659;28;20384;-74
2022/01/24 09:30:57;;;;;;;27.35;14.95;;;5.20;99.90;;;;;;4980237;28;20057;-74
2022/01/24 09:33:24;;;;;;;20.50;15.07;;;5.20;99.90;;;;;;4961881;28;20386;-74
2022/01/24 09:35:51;;;;;;;27.85;16.05;;;5.20;99.90;;;;;;4993995;28;20056;-73
2022/01/24 09:38:18;;;;;;;23.75;15.38;;;5.20;99.90;;;;;;4975513;28;20586;-74
2022/01/24 09:40:43;;;;;;;28.45;14.82;;;5.20;99.90;;;;;;4996504;28;20030;-75
2022/01/24 09:43:09;;;;;;;27.48;17.15;;;5.20;99.90;;;;;;5015591;28;20038;-74
2022/01/24 09:45:36;;;;;;;23.40;14.50;;;5.20;99.90;;;;;;5009376;28;20044;-74
2022/01/24 09:48:03;;;;;;;23.70;15.55;;;5.20;99.90;;;;;;5008992;28;20042;-74
2022/01/24 09:50:29;;;;;;;26.92;15.75;;;5.20;99.90;;;;;;4996617;28;20103;-74
2022/01/24 09:52:55;;;;;;;24.10;18.40;;;5.20;99.90;;;;;;4999050;28;20038;-74
2022/01/24 09:55:23;;;;;;;26.75;16.08;;;5.20;99.90;;;;;;4977072;28;20095;-74
2022/01/24 09:57:49;;;;;;;26.98;17.75;;;5.20;99.90;;;;;;4976795;28;20073;-74
2022/01/24 10:00:19;;;;;;;25.10;15.25;;;5.20;99.90;;;;;;4989494;28;20034;-74
2022/01/24 10:02:46;;;;;;;23.10;15.75;;;5.20;99.90;;;;;;4977661;28;20046;-74
2022/01/24 10:05:27;;;;;;;26.65;17.05;;;5.20;99.90;;;;;;4973990;28;20387;-74
2022/01/24 10:07:58;;;;;;;25.65;16.92;;;5.20;99.90;;;;;;5005440;28;20030;-86
2022/01/24 10:10:28;;;;;;;24.85;16.02;;;5.20;99.90;;;;;;5004149;28;20085;-86
2022/01/24 10:18:10;;;;;;;25.88;16.60;;;5.30;99.90;;;;;;4999585;28;20135;-86
2022/01/24 10:20:39;;;;;;;27.58;18.70;;;5.20;99.90;;;;;;4997589;28;20514;-86
2022/01/24 10:23:16;;;;;;;24.42;15.55;;;5.20;99.90;;;;;;4991190;28;20037;-86
2022/01/24 10:25:53;;;;;;;25.67;16.35;;;5.30;99.90;;;;;;5002805;28;20077;-75
2022/01/24 10:28:32;;;;;;;23.95;17.25;;;5.30;99.90;;;;;;4994084;28;20041;-74
2022/01/24 10:31:02;;;;;;;27.70;17.23;;;5.30;99.90;;;;;;4976392;28;20117;-75
2022/01/24 10:33:28;;;;;;;24.30;16.67;;;5.20;99.90;;;;;;4994673;28;20045;-75
2022/01/24 10:35:54;;;;;;;23.02;15.77;;;5.20;99.90;;;;;;4987184;28;20045;-75
2022/01/24 10:43:38;;;;;;;;;;;5.30;99.90;;;;;;5002284;28;20513;-75
2022/01/24 10:46:05;;;;;;;25.00;15.57;;;5.30;99.90;;;;;;4995050;28;20387;-75
2022/01/24 10:48:43;;;;;;;23.25;16.08;;;5.30;99.90;;;;;;4993860;28;20041;-75
2022/01/24 10:51:17;;;;;;;27.15;16.83;;;5.30;99.90;;;;;;4992959;28;20448;-75
2022/01/24 10:53:46;;;;;;;26.10;16.25;;;5.30;99.90;;;;;;5002888;28;20057;-75
2022/01/24 10:56:40;;;;;;;25.85;17.95;;;5.30;99.90;;;;;;4971545;28;20045;-74
2022/01/24 10:59:33;;;;;;;29.15;16.70;;;5.30;99.90;;;;;;4991965;28;20219;-74
2022/01/24 11:02:03;;;;;;;26.58;16.65;;;5.30;99.90;;;;;;4977545;28;20059;-74
2022/01/24 11:04:33;;;;;;;24.77;16.90;;;5.30;99.90;;;;;;4996325;28;20065;-74
2022/01/24 11:07:02;;;;;;;26.33;17.15;;;5.30;99.90;;;;;;4978222;28;20155;-74
2022/01/24 11:09:37;;;;;;;27.67;18.50;;;5.40;99.90;;;;;;4973249;28;20052;-74
2022/01/24 11:12:12;;;;;;;25.25;15.35;;;5.30;99.90;;;;;;4989584;28;20134;-74
2022/01/24 11:14:44;;;;;;;30.17;19.55;;;5.30;99.90;;;;;;4990468;28;20053;-74
2022/01/24 11:17:13;;;;;;;26.95;17.05;;;5.40;99.90;;;;;;4981899;28;20038;-83
2022/01/24 11:19:43;;;;;;;25.13;16.25;;;5.40;99.90;;;;;;5002887;28;20156;-83
2022/01/24 11:22:19;;;;;;;27.75;17.25;;;5.40;99.90;;;;;;5003076;28;20597;-84
2022/01/24 11:24:58;;;;;;;28.63;18.13;;;5.40;99.90;;;;;;4996545;28;20049;-84
2022/01/24 11:27:25;;;;;;;27.50;17.33;;;5.40;99.90;;;;;;5005830;28;20049;-84
2022/01/24 11:29:54;;;;;;;27.60;16.42;;;5.30;99.90;;;;;;4990852;28;20038;-83
2022/01/24 11:32:31;;;;;;;25.77;16.15;;;5.40;99.90;;;;;;4991862;28;20034;-83
2022/01/24 11:34:58;;;;;;;24.92;15.45;;;5.40;99.90;;;;;;5008620;28;20058;-83
2022/01/24 11:37:46;;;;;;;28.88;17.05;;;5.40;99.90;;;;;;4992756;28;20044;-83
2022/01/24 11:40:19;;;;;;;26.60;18.23;;;5.40;99.90;;;;;;4975048;28;20081;-84
2022/01/24 11:42:47;;;;;;;30.27;18.38;;;5.40;99.90;;;;;;5008066;28;20038;-84
2022/01/24 11:45:18;;;;;;;32.83;18.15;;;5.40;99.90;;;;;;4991522;28;20050;-83
2022/01/24 11:47:46;;;;;;;26.65;17.58;;;5.40;99.90;;;;;;4988611;28;20029;-83
2022/01/24 11:50:24;;;;;;;27.90;17.98;;;5.40;99.90;;;;;;4991466;28;20129;-83
2022/01/24 11:52:51;;;;;;;25.48;16.88;;;5.40;99.90;;;;;;5010197;28;20052;-83
2022/01/24 11:55:31;;;;;;;27.30;18.42;;;5.40;99.90;;;;;;5008595;28;20413;-83
2022/01/24 11:58:04;;;;;;;27.85;16.73;;;5.40;99.90;;;;;;4989674;28;20048;-83
2022/01/24 12:00:38;;;;;;;27.13;17.35;;;5.40;99.90;;;;;;5015287;28;20045;-83
2022/01/24 12:03:23;;;;;;;26.23;18.83;;;5.40;99.90;;;;;;4991523;28;20105;-83
2022/01/24 12:05:53;;;;;;;27.80;17.88;;;5.40;99.90;;;;;;4992015;28;20483;-75
2022/01/24 12:08:41;;;;;;;28.75;18.20;;;5.40;99.90;;;;;;4991853;28;20512;-74
2022/01/24 12:11:27;;;;;;;31.65;19.08;;;5.40;99.90;;;;;;4986396;28;20044;-74
2022/01/24 12:14:01;;;;;;;28.30;17.98;;;5.40;99.90;;;;;;4975081;28;20286;-74
2022/01/24 12:16:35;;;;;;;29.08;19.75;;;5.40;99.90;;;;;;4993495;28;20038;-74
2022/01/24 12:19:03;;;;;;;29.08;17.42;;;5.50;99.90;;;;;;5000255;28;20544;-74
2022/01/24 12:21:31;;;;;;;24.30;16.85;;;5.50;99.90;;;;;;5014120;28;20037;-74
2022/01/24 12:23:58;;;;;;;29.23;18.95;;;5.50;99.90;;;;;;4998122;28;20052;-75
2022/01/24 12:26:27;;;;;;;27.92;17.60;;;5.50;99.90;;;;;;5010405;28;20337;-74
2022/01/24 12:29:14;;;;;;;31.00;18.83;;;5.50;99.90;;;;;;4993710;28;20052;-75
2022/01/24 12:31:53;;;;;;;30.58;17.45;;;5.50;99.90;;;;;;4984172;28;20060;-75
2022/01/24 12:34:51;;;;;;;25.42;16.48;;;5.50;99.90;;;;;;4993414;28;20041;-74
2022/01/24 12:37:30;;;;;;;26.90;17.88;;;5.50;99.90;;;;;;4975539;28;20363;-82
2022/01/24 12:40:00;;;;;;;30.23;17.08;;;5.50;99.90;;;;;;4992582;28;20498;-83
2022/01/24 12:42:51;;;;;;;30.83;17.83;;;5.40;99.90;;;;;;5012553;28;20193;-83
2022/01/24 12:48:13;;;;;;;27.40;18.80;;;5.50;99.90;;;;;;5026982;28;20042;-83
2022/01/24 12:50:47;;;;;;;33.47;19.33;;;5.50;99.90;;;;;;5017513;28;20038;-83
2022/01/24 12:53:14;;;;;;;33.13;19.10;;;5.50;99.90;;;;;;5027100;28;20120;-83
2022/01/24 12:55:41;;;;;;;31.00;18.45;;;5.40;99.90;;;;;;5013766;28;20103;-83
2022/01/24 12:58:07;;;;;;;28.83;18.35;;;5.50;99.90;;;;;;5014810;28;20052;-83
2022/01/24 13:00:33;;;;;;;30.67;18.35;;;5.50;99.90;;;;;;5013886;28;20068;-83
2022/01/24 13:02:59;;;;;;;27.80;18.50;;;5.40;99.90;;;;;;5023703;28;20045;-83
2022/01/24 13:05:28;;;;;;;30.98;20.40;;;5.50;99.90;;;;;;5002886;28;20052;-83
2022/01/24 13:07:58;;;;;;;34.03;20.80;;;5.50;99.90;;;;;;5012867;28;20041;-74
2022/01/24 13:10:26;;;;;;;33.00;21.30;;;5.50;99.90;;;;;;5003365;28;20037;-73
2022/01/24 13:13:06;;;;;;;30.30;19.88;;;5.50;99.90;;;;;;5019924;28;20428;-85
2022/01/24 13:21:17;;;;;;;31.25;19.60;;;5.50;99.90;;;;;;5014767;28;20053;-80
2022/01/24 13:23:51;;;;;;;30.88;20.33;;;5.50;99.90;;;;;;4999737;28;20056;-81
2022/01/24 13:26:16;;;;;;;34.58;21.10;;;5.50;99.90;;;;;;5013888;28;20049;-81
2022/01/24 13:28:42;;;;;;;33.50;19.38;;;5.40;99.90;;;;;;5023728;28;20041;-81
2022/01/24 13:31:09;;;;;;;33.40;21.02;;;5.50;99.90;;;;;;4996482;28;20464;-80
2022/01/24 13:33:43;;;;;;;33.33;19.92;;;5.50;99.90;;;;;;5016122;28;20048;-81
2022/01/24 13:36:09;;;;;;;37.08;20.70;;;5.50;99.90;;;;;;5027005;28;20037;-82
2022/01/24 13:38:44;;;;;;;34.80;19.92;;;5.50;99.90;;;;;;5013631;28;20038;-82
2022/01/24 13:41:15;;;;;;;28.83;19.40;;;5.50;99.90;;;;;;5019341;28;20492;-82
2022/01/24 13:43:54;;;;;;;30.95;19.75;;;5.50;99.90;;;;;;5013317;28;20111;-82
2022/01/24 13:46:28;;;;;;;35.47;22.23;;;5.50;99.90;;;;;;4993594;28;20037;-82
2022/01/24 13:48:59;;;;;;;31.20;21.33;;;5.50;99.90;;;;;;5012671;28;20111;-75
2022/01/24 13:51:35;;;;;;;37.50;23.60;;;5.50;99.90;;;;;;5018628;28;20044;-76
2022/01/24 13:54:04;;;;;;;40.85;25.33;;;5.50;99.90;;;;;;5013364;28;20072;-75
2022/01/24 13:56:34;;;;;;;41.17;25.52;;;5.50;99.90;;;;;;4997343;28;20039;-76
2022/01/24 13:59:07;;;;;;;38.80;23.13;;;5.50;99.90;;;;;;5019656;28;20033;-76
2022/01/24 14:01:35;;;;;;;39.92;25.23;;;5.40;99.90;;;;;;5011876;28;20037;-76
2022/01/24 14:04:04;;;;;;;40.42;24.67;;;5.40;99.90;;;;;;5009843;28;20458;-76
2022/01/24 14:06:32;;;;;;;44.47;26.90;;;5.50;99.90;;;;;;5012962;28;20120;-75
2022/01/24 14:09:16;;;;;;;38.25;24.08;;;5.40;99.90;;;;;;5018762;28;20045;-88
2022/01/24 14:11:44;;;;;;;33.30;24.63;;;5.40;99.90;;;;;;5016624;28;20120;-75
2022/01/24 14:14:14;;;;;;;41.42;25.73;;;5.50;99.90;;;;;;4993117;28;20069;-76
2022/01/24 14:19:39;;;;;;;42.10;24.85;;;5.40;99.90;;;;;;4989926;28;20270;-75
2022/01/24 14:22:11;;;;;;;43.53;26.63;;;5.40;99.90;;;;;;4995206;28;20042;-76
2022/01/24 14:24:45;;;;;;;42.85;27.30;;;5.40;99.90;;;;;;5010237;28;20038;-76
2022/01/24 14:27:13;;;;;;;42.47;25.77;;;5.50;99.90;;;;;;5000279;28;20064;-79
2022/01/24 14:29:39;;;;;;;36.42;23.42;;;5.40;99.90;;;;;;4994591;28;20045;-77
2022/01/24 14:32:13;;;;;;;42.45;26.58;;;5.40;99.90;;;;;;4985942;28;20064;-76
2022/01/24 14:34:39;;;;;;;39.88;26.13;;;5.40;99.90;;;;;;5012432;28;20065;-76
2022/01/24 14:37:06;;;;;;;42.45;25.55;;;5.50;99.90;;;;;;5015658;28;20041;-75
2022/01/24 14:39:43;;;;;;;40.67;25.60;;;5.40;99.90;;;;;;4992003;28;20038;-75
2022/01/24 14:42:13;;;;;;;39.15;24.17;;;5.40;99.90;;;;;;5010808;28;20037;-75
2022/01/24 14:44:54;;;;;;;42.20;26.15;;;5.40;99.90;;;;;;5010746;28;20045;-76
2022/01/24 14:47:24;;;;;;;41.08;26.85;;;5.40;99.90;;;;;;5012577;28;20439;-76
2022/01/24 14:49:50;;;;;;;44.03;27.20;;;5.40;99.90;;;;;;5005858;28;20190;-76
2022/01/24 14:52:19;;;;;;;42.65;26.23;;;5.40;99.90;;;;;;4995299;28;20096;-75
2022/01/24 14:54:45;;;;;;;49.55;27.83;;;5.40;99.90;;;;;;5011036;28;20045;-75
2022/01/24 14:57:15;;;;;;;40.03;25.55;;;5.40;99.90;;;;;;4977935;28;20095;-75
2022/01/24 14:59:42;;;;;;;44.03;26.65;;;5.40;99.90;;;;;;5009675;28;20052;-75
2022/01/24 15:02:08;;;;;;;37.42;25.95;;;5.40;99.90;;;;;;5002076;28;20443;-75